KVEL/VEL METAR and TAF weather

Enter ICAO airport designator
Station Type Date Time Source
KVEL METAR 2020/01/29 18:53 UTC NOAA

KVEL 291853Z AUTO 10007KT 8SM BKN019 M02/M06 A3020 RMK AO2 SLP257 T10221056


Station Type Date Time Source
KVEL Decoded METAR 2020/01/29 18:53 UTC NOAA

VERNAL AIRPORT, UT, United States (KVEL) 40-26N 109-30W 1604M
Jan 29, 2020 - 01:53 PM EST / 2020.01.29 1853 UTC
Wind: from the E (100 degrees) at 8 MPH (7 KT):0
Visibility: 8 mile(s):0
Sky conditions: mostly cloudy
Temperature: 28.0 F (-2.2 C)
Windchill: 19 F (-7 C):1
Dew Point: 21.9 F (-5.6 C)
Relative Humidity: 77%
Pressure (altimeter): 30.2 in. Hg (1022 hPa)
ob: KVEL 291853Z AUTO 10007KT 8SM BKN019 M02/M06 A3020 RMK AO2 SLP257 T10221056
cycle: 19

Station Type Date Time Source
KVEL TAF 2020/01/29 18:48 UTC NOAA

TAF KVEL 291747Z 2918/3018 VRB03KT P6SM OVC020
FM292100 VRB03KT P6SM SCT021 BKN040
FM301200 VRB03KT P6SM SCT012 BKN025

Example: see airport list